createdAt,value
2023-01-29T00:00:53.858Z,47.23
2023-01-29T00:01:53.858Z,46.93
2023-01-29T00:02:53.845Z,47.13
2023-01-29T00:03:53.858Z,47.08
2023-01-29T00:04:53.859Z,47.11
2023-01-29T00:05:53.858Z,47.15
2023-01-29T00:06:53.844Z,47.26
2023-01-29T00:07:53.907Z,47.34
2023-01-29T00:08:53.860Z,47.39
2023-01-29T00:09:53.844Z,47.24
2023-01-29T00:10:53.845Z,47.24
2023-01-29T00:11:53.858Z,47.02
2023-01-29T00:12:53.859Z,47.15
2023-01-29T00:13:53.845Z,47.17
2023-01-29T00:14:53.859Z,47.19
2023-01-29T00:15:53.859Z,47
2023-01-29T00:17:53.845Z,47.07
2023-01-29T00:18:53.858Z,47.14
2023-01-29T00:19:53.859Z,47.19
2023-01-29T00:20:53.859Z,47.04
2023-01-29T00:21:53.846Z,47.05
2023-01-29T00:22:53.859Z,46.82
2023-01-29T00:23:53.859Z,47.12
2023-01-29T00:24:53.859Z,46.85
2023-01-29T00:25:53.846Z,46.93
2023-01-29T00:26:53.860Z,47.07
2023-01-29T00:27:53.860Z,46.97
2023-01-29T00:28:53.845Z,47.07
2023-01-29T00:29:53.846Z,47.12
2023-01-29T00:30:53.860Z,47.15
2023-01-29T00:31:53.860Z,47.22
2023-01-29T00:32:53.846Z,47.13
2023-01-29T00:34:03.183Z,47.01
2023-01-29T00:34:53.860Z,46.9
2023-01-29T00:35:53.859Z,47.14
2023-01-29T00:36:53.846Z,47.12
2023-01-29T00:37:53.859Z,47.06
2023-01-29T00:38:53.860Z,46.87
2023-01-29T00:39:53.860Z,47.14
2023-01-29T00:40:53.846Z,47.02
2023-01-29T00:41:53.861Z,47.02
2023-01-29T00:42:53.863Z,46.83
2023-01-29T00:43:53.860Z,46.76
2023-01-29T00:44:53.847Z,46.76
2023-01-29T00:45:53.861Z,46.94
2023-01-29T00:46:53.862Z,46.89
2023-01-29T00:47:53.861Z,47.06
2023-01-29T00:48:53.847Z,47.06
2023-01-29T00:49:53.861Z,47.19
2023-01-29T00:50:53.861Z,47.28
2023-01-29T00:51:53.847Z,47.36
2023-01-29T00:52:53.846Z,47.43
2023-01-29T00:53:53.861Z,47.47
2023-01-29T00:54:53.862Z,47.2
2023-01-29T00:55:53.845Z,47.34
2023-01-29T00:56:53.861Z,47.11
2023-01-29T00:57:53.861Z,47.2
2023-01-29T00:58:53.861Z,47.26
2023-01-29T00:59:53.847Z,47.17
2023-01-29T01:00:53.861Z,47.13
2023-01-29T01:01:53.862Z,46.97
2023-01-29T01:02:53.861Z,47.03
2023-01-29T01:03:53.848Z,46.97
2023-01-29T01:04:53.862Z,46.73
2023-01-29T01:05:53.862Z,46.96
2023-01-29T01:06:53.861Z,46.92
2023-01-29T01:07:53.848Z,46.88
2023-01-29T01:08:53.862Z,46.78
2023-01-29T01:09:53.862Z,46.8
2023-01-29T01:10:53.875Z,46.8
2023-01-29T01:11:53.848Z,46.87
2023-01-29T01:12:53.862Z,46.82
2023-01-29T01:13:53.862Z,47.07
2023-01-29T01:14:53.848Z,46.91
2023-01-29T01:15:53.849Z,46.92
2023-01-29T01:16:53.862Z,47
2023-01-29T01:17:53.862Z,47.07
2023-01-29T01:18:53.848Z,47.14
2023-01-29T01:19:53.862Z,47.18
2023-01-29T01:20:53.863Z,47.27
2023-01-29T01:21:53.862Z,47.14
2023-01-29T01:22:53.848Z,47.33
2023-01-29T01:23:53.863Z,47.29
2023-01-29T01:24:53.863Z,46.97
2023-01-29T01:25:53.862Z,47.21
2023-01-29T01:26:53.849Z,47.32
2023-01-29T01:28:53.863Z,47.7
2023-01-29T01:29:53.863Z,47.68
2023-01-29T01:30:53.849Z,47.74
2023-01-29T01:31:53.926Z,47.54
2023-01-29T01:32:53.863Z,47.57
2023-01-29T01:33:53.849Z,47.41
2023-01-29T01:34:53.850Z,47.26
2023-01-29T01:35:53.863Z,47.09
2023-01-29T01:36:53.864Z,47.12
2023-01-29T01:37:53.849Z,47.06
2023-01-29T01:38:53.864Z,47.05
2023-01-29T01:39:53.864Z,46.78
2023-01-29T01:40:53.863Z,46.92
2023-01-29T01:41:53.849Z,46.88
2023-01-29T01:42:53.864Z,47.03
2023-01-29T01:43:53.864Z,46.86
2023-01-29T01:44:53.863Z,46.99
2023-01-29T01:45:53.850Z,47.11
2023-01-29T01:46:53.864Z,47.26
2023-01-29T01:47:53.864Z,47.33
2023-01-29T01:48:53.864Z,47.37
2023-01-29T01:49:53.850Z,47.3
2023-01-29T01:50:53.863Z,47.23
2023-01-29T01:51:53.864Z,47.31
2023-01-29T01:52:53.850Z,47.21
2023-01-29T01:53:53.851Z,47.16
2023-01-29T01:54:53.864Z,47.04
2023-01-29T01:55:53.864Z,47.13
2023-01-29T01:56:53.850Z,46.97
2023-01-29T01:57:53.851Z,46.86
2023-01-29T01:58:53.865Z,46.94
2023-01-29T01:59:53.864Z,46.75
2023-01-29T02:00:53.850Z,46.67
2023-01-29T02:01:53.865Z,46.69
2023-01-29T02:02:53.865Z,46.87
2023-01-29T02:03:53.865Z,46.57
2023-01-29T02:04:53.849Z,46.59
2023-01-29T02:05:53.865Z,46.65
2023-01-29T02:06:53.892Z,46.72
2023-01-29T02:07:53.864Z,46.58
2023-01-29T02:08:53.851Z,46.58
2023-01-29T02:09:53.865Z,46.74
2023-01-29T02:10:53.865Z,46.99
2023-01-29T02:12:03.122Z,46.76
2023-01-29T02:12:53.851Z,46.82
2023-01-29T02:13:53.864Z,46.83
2023-01-29T02:14:53.865Z,46.93
2023-01-29T02:15:53.878Z,46.82
2023-01-29T02:16:53.852Z,46.84
2023-01-29T02:17:53.866Z,47.1
2023-01-29T02:18:53.867Z,46.97
2023-01-29T02:19:53.850Z,46.97
2023-01-29T02:20:53.852Z,47.11
2023-01-29T02:21:53.865Z,47.06
2023-01-29T02:22:53.867Z,47.18
2023-01-29T02:23:53.852Z,47.1
2023-01-29T02:24:53.866Z,46.81
2023-01-29T02:25:53.866Z,46.88
2023-01-29T02:26:53.866Z,47.1
2023-01-29T02:27:53.852Z,47.05
2023-01-29T02:28:53.866Z,47.04
2023-01-29T02:29:53.865Z,47.2
2023-01-29T02:30:53.865Z,47
2023-01-29T02:31:53.853Z,47
2023-01-29T02:32:53.867Z,46.88
2023-01-29T02:33:53.866Z,46.92
2023-01-29T02:34:53.867Z,47.07
2023-01-29T02:35:53.852Z,46.92
2023-01-29T02:36:53.890Z,46.9
2023-01-29T02:37:53.868Z,46.92
2023-01-29T02:38:53.852Z,46.94
2023-01-29T02:39:53.852Z,46.94
2023-01-29T02:40:53.867Z,46.78
2023-01-29T02:41:53.868Z,46.85
2023-01-29T02:42:53.853Z,46.78
2023-01-29T02:43:53.866Z,46.78
2023-01-29T02:44:53.866Z,46.81
2023-01-29T02:45:53.867Z,46.86
2023-01-29T02:46:53.853Z,46.9
2023-01-29T02:47:53.867Z,47.05
2023-01-29T02:48:53.867Z,47.01
2023-01-29T02:49:53.866Z,47.09
2023-01-29T02:50:53.854Z,47.13
2023-01-29T02:51:53.868Z,47.19
2023-01-29T02:52:53.868Z,47.2
2023-01-29T02:53:53.868Z,47.2
2023-01-29T02:54:53.854Z,47.33
2023-01-29T02:55:53.868Z,47.41
2023-01-29T02:56:53.868Z,47.44
2023-01-29T02:57:53.853Z,47.41
2023-01-29T02:58:53.854Z,47.35
2023-01-29T02:59:53.868Z,47.31
2023-01-29T03:00:53.869Z,47.18
2023-01-29T03:01:53.854Z,47.06
2023-01-29T03:02:53.933Z,46.97
2023-01-29T03:03:53.868Z,47
2023-01-29T03:04:53.868Z,46.85
2023-01-29T03:05:53.854Z,46.82
2023-01-29T03:06:59.895Z,46.97
2023-01-29T03:07:53.868Z,46.9
2023-01-29T03:08:53.868Z,46.95
2023-01-29T03:09:53.852Z,47.01
2023-01-29T03:10:53.869Z,47.02
2023-01-29T03:11:53.868Z,47.12
2023-01-29T03:12:53.868Z,47.13
2023-01-29T03:13:53.855Z,47.21
2023-01-29T03:14:53.868Z,47.25
2023-01-29T03:15:53.869Z,47.07
2023-01-29T03:16:53.869Z,47.05
2023-01-29T03:17:53.855Z,47.1
2023-01-29T03:18:53.869Z,47.11
2023-01-29T03:19:53.869Z,47.1
2023-01-29T03:20:53.853Z,47.04
2023-01-29T03:21:53.855Z,46.96
2023-01-29T03:22:53.869Z,46.89
2023-01-29T03:23:53.869Z,47.01
2023-01-29T03:24:53.855Z,46.99
2023-01-29T03:25:53.933Z,46.87
2023-01-29T03:26:53.869Z,46.93
2023-01-29T03:27:53.869Z,47.12
2023-01-29T03:28:53.855Z,46.98
2023-01-29T03:29:53.869Z,47.06
2023-01-29T03:30:53.870Z,47.05
2023-01-29T03:31:53.868Z,47.16
2023-01-29T03:32:53.855Z,47.18
2023-01-29T03:33:53.870Z,47.19
2023-01-29T03:34:53.871Z,47.39
2023-01-29T03:35:53.870Z,47.39
2023-01-29T03:36:53.855Z,47.51
2023-01-29T03:37:53.870Z,47.6
2023-01-29T03:38:53.871Z,47.66
2023-01-29T03:39:53.869Z,47.5
2023-01-29T03:40:53.856Z,47.46
2023-01-29T03:41:53.870Z,47.42
2023-01-29T03:42:53.870Z,47.45
2023-01-29T03:43:53.856Z,47.61
2023-01-29T03:44:53.856Z,47.62
2023-01-29T03:45:53.870Z,47.48
2023-01-29T03:46:53.870Z,47.54
2023-01-29T03:47:53.856Z,47.62
2023-01-29T03:48:53.869Z,47.7
2023-01-29T03:49:53.870Z,47.77
2023-01-29T03:51:03.127Z,47.65
2023-01-29T03:51:53.856Z,47.6
2023-01-29T03:52:53.871Z,47.6
2023-01-29T03:53:53.871Z,47.61
2023-01-29T03:54:53.870Z,47.51
2023-01-29T03:55:53.870Z,47.45
2023-01-29T03:56:53.870Z,47.46
2023-01-29T03:57:53.871Z,47.46
2023-01-29T03:58:53.871Z,47.15
2023-01-29T03:59:53.857Z,47.13
2023-01-29T04:00:53.871Z,47.19
2023-01-29T04:01:53.871Z,47.14
2023-01-29T04:02:53.855Z,46.93
2023-01-29T04:03:53.857Z,47
2023-01-29T04:04:53.871Z,46.97
2023-01-29T04:05:53.872Z,47.05
2023-01-29T04:06:57.628Z,47.03
2023-01-29T04:07:53.857Z,46.96
2023-01-29T04:08:53.870Z,46.78
2023-01-29T04:09:53.872Z,46.79
2023-01-29T04:10:53.857Z,46.81
2023-01-29T04:11:53.870Z,46.81
2023-01-29T04:12:53.870Z,46.94
2023-01-29T04:13:53.871Z,46.93
2023-01-29T04:14:53.857Z,46.96
2023-01-29T04:15:53.872Z,47.18
2023-01-29T04:16:53.872Z,47.27
2023-01-29T04:17:53.871Z,47.28
2023-01-29T04:18:53.858Z,47.31
2023-01-29T04:19:53.872Z,47.33
2023-01-29T04:20:53.873Z,47.27
2023-01-29T04:21:53.872Z,47.16
2023-01-29T04:22:53.858Z,47.09
2023-01-29T04:23:53.871Z,46.96
2023-01-29T04:24:53.872Z,46.97
2023-01-29T04:25:53.858Z,46.93
2023-01-29T04:26:53.858Z,46.85
2023-01-29T04:27:53.872Z,46.97
2023-01-29T04:28:53.873Z,46.88
2023-01-29T04:29:53.856Z,46.91
2023-01-29T04:30:53.859Z,46.93
2023-01-29T04:31:53.872Z,46.87
2023-01-29T04:32:53.871Z,46.99
2023-01-29T04:33:53.858Z,47
2023-01-29T04:34:53.873Z,47.13
2023-01-29T04:35:53.873Z,47.27
2023-01-29T04:36:53.872Z,47.11
2023-01-29T04:37:53.858Z,47.03
2023-01-29T04:38:53.872Z,46.91
2023-01-29T04:39:53.874Z,46.9
2023-01-29T04:40:53.873Z,46.99
2023-01-29T04:41:53.859Z,46.96
2023-01-29T04:42:53.873Z,46.97
2023-01-29T04:43:53.873Z,46.89
2023-01-29T04:44:53.858Z,46.93
2023-01-29T04:45:53.858Z,46.93
2023-01-29T04:46:53.873Z,46.86
2023-01-29T04:47:53.874Z,46.81
2023-01-29T04:48:53.859Z,46.87
2023-01-29T04:49:53.859Z,46.84
2023-01-29T04:50:53.873Z,46.83
2023-01-29T04:51:53.872Z,46.7
2023-01-29T04:52:53.857Z,46.79
2023-01-29T04:53:53.874Z,46.85
2023-01-29T04:54:53.874Z,46.74
2023-01-29T04:55:53.874Z,46.99
2023-01-29T04:56:53.859Z,46.95
2023-01-29T04:57:53.873Z,46.93
2023-01-29T04:58:53.876Z,47.1
2023-01-29T04:59:53.874Z,47.1
2023-01-29T05:00:53.859Z,47.2
2023-01-29T05:01:53.874Z,47.42
2023-01-29T05:02:53.874Z,47.65
2023-01-29T05:03:53.874Z,47.57
2023-01-29T05:04:53.860Z,47.71
2023-01-29T05:05:53.874Z,47.73
2023-01-29T05:07:02.109Z,47.71
2023-01-29T05:07:53.860Z,47.56
2023-01-29T05:08:53.858Z,47.46
2023-01-29T05:09:53.874Z,47.46
2023-01-29T05:10:53.874Z,47.32
2023-01-29T05:11:53.860Z,47.29
2023-01-29T05:12:53.923Z,47.38
2023-01-29T05:13:53.874Z,47.21
2023-01-29T05:14:53.874Z,47.19
2023-01-29T05:15:53.860Z,47.04
2023-01-29T05:17:02.109Z,46.95
2023-01-29T05:17:53.875Z,47
2023-01-29T05:18:53.875Z,47.02
2023-01-29T05:19:53.859Z,47.13
2023-01-29T05:20:53.875Z,47.06
2023-01-29T05:21:53.875Z,47.04
2023-01-29T05:22:53.874Z,47.12
2023-01-29T05:23:53.861Z,47.17
2023-01-29T05:24:53.875Z,47.15
2023-01-29T05:25:53.875Z,47.12
2023-01-29T05:26:53.874Z,47.13
2023-01-29T05:27:53.861Z,47.08
2023-01-29T05:28:53.875Z,47.07
2023-01-29T05:29:53.876Z,46.92
2023-01-29T05:30:53.860Z,46.92
2023-01-29T05:31:53.861Z,46.87
2023-01-29T05:32:53.874Z,47
2023-01-29T05:33:53.875Z,46.89
2023-01-29T05:34:53.861Z,47
2023-01-29T05:35:53.862Z,47.05
2023-01-29T05:36:53.875Z,47.05
2023-01-29T05:37:53.875Z,47.11
2023-01-29T05:38:53.861Z,47.18
2023-01-29T05:39:53.875Z,47.09
2023-01-29T05:40:53.876Z,47.19
2023-01-29T05:41:53.876Z,47.11
2023-01-29T05:42:53.861Z,47.13
2023-01-29T05:43:53.875Z,47.01
2023-01-29T05:44:53.877Z,47.11
2023-01-29T05:45:53.876Z,47.02
2023-01-29T05:46:53.861Z,47
2023-01-29T05:47:53.876Z,46.91
2023-01-29T05:48:53.876Z,47.11
2023-01-29T05:49:53.876Z,47.13
2023-01-29T05:50:53.862Z,47.18
2023-01-29T05:51:53.876Z,47.18
2023-01-29T05:52:53.876Z,47.17
2023-01-29T05:53:53.862Z,47.21
2023-01-29T05:54:53.863Z,47.15
2023-01-29T05:55:53.876Z,47.16
2023-01-29T05:56:53.900Z,47.1
2023-01-29T05:57:53.862Z,47.07
2023-01-29T05:58:53.876Z,47.07
2023-01-29T05:59:53.876Z,47.16
2023-01-29T06:00:53.876Z,47.01
2023-01-29T06:01:53.862Z,47
2023-01-29T06:02:53.876Z,46.88
2023-01-29T06:03:53.918Z,46.95
2023-01-29T06:04:53.876Z,46.91
2023-01-29T06:05:53.863Z,46.86
2023-01-29T06:06:53.876Z,46.83
2023-01-29T06:07:53.878Z,46.8
2023-01-29T06:08:53.876Z,46.66
2023-01-29T06:09:53.863Z,46.73
2023-01-29T06:10:53.877Z,46.66
2023-01-29T06:11:53.878Z,46.66
2023-01-29T06:12:53.863Z,46.54
2023-01-29T06:13:53.863Z,46.47
2023-01-29T06:14:53.876Z,46.51
2023-01-29T06:15:53.878Z,46.44
2023-01-29T06:16:53.863Z,46.49
2023-01-29T06:17:53.926Z,46.45
2023-01-29T06:18:53.877Z,46.4
2023-01-29T06:19:53.877Z,46.52
2023-01-29T06:20:53.863Z,46.56
2023-01-29T06:21:53.878Z,46.76
2023-01-29T06:22:53.878Z,46.66
2023-01-29T06:23:53.877Z,46.76
2023-01-29T06:24:53.878Z,46.74
2023-01-29T06:25:53.877Z,46.97
2023-01-29T06:26:53.879Z,46.86
2023-01-29T06:27:53.877Z,47.13
2023-01-29T06:28:53.862Z,47.06
2023-01-29T06:29:53.877Z,47.07
2023-01-29T06:30:53.878Z,47.05
2023-01-29T06:31:53.878Z,46.95
2023-01-29T06:32:53.864Z,46.95
2023-01-29T06:33:53.941Z,47.17
2023-01-29T06:34:53.879Z,46.96
2023-01-29T06:35:53.864Z,46.89
2023-01-29T06:36:53.864Z,46.87
2023-01-29T06:37:53.877Z,46.82
2023-01-29T06:38:53.879Z,46.79
2023-01-29T06:39:53.864Z,46.73
2023-01-29T06:40:53.877Z,46.77
2023-01-29T06:41:53.878Z,46.71
2023-01-29T06:42:53.878Z,46.72
2023-01-29T06:43:53.864Z,46.81
2023-01-29T06:44:53.878Z,46.85
2023-01-29T06:45:53.879Z,46.92
2023-01-29T06:46:53.878Z,46.77
2023-01-29T06:47:53.864Z,46.82
2023-01-29T06:48:53.879Z,46.9
2023-01-29T06:49:53.879Z,46.98
2023-01-29T06:50:53.879Z,46.89
2023-01-29T06:51:53.864Z,46.95
2023-01-29T06:52:53.878Z,47.02
2023-01-29T06:53:53.880Z,47.03
2023-01-29T06:54:53.865Z,47.01
2023-01-29T06:55:53.865Z,47.06
2023-01-29T06:56:53.879Z,47.07
2023-01-29T06:57:53.880Z,47
2023-01-29T06:58:53.863Z,47.14
2023-01-29T06:59:53.865Z,47.15
2023-01-29T07:00:53.879Z,47.15
2023-01-29T07:01:53.879Z,47.22
2023-01-29T07:02:53.865Z,47.14
2023-01-29T07:03:53.880Z,47.34
2023-01-29T07:04:53.880Z,47.22
2023-01-29T07:05:53.879Z,47.12
2023-01-29T07:07:03.123Z,47.01
2023-01-29T07:07:53.880Z,46.97
2023-01-29T07:08:53.922Z,46.93
2023-01-29T07:09:53.880Z,46.75
2023-01-29T07:10:53.866Z,46.79
2023-01-29T07:11:53.879Z,46.85
2023-01-29T07:12:53.881Z,46.58
2023-01-29T07:13:53.880Z,46.57
2023-01-29T07:14:53.866Z,46.68
2023-01-29T07:15:53.880Z,46.75
2023-01-29T07:16:53.880Z,46.83
2023-01-29T07:17:53.866Z,46.81
2023-01-29T07:18:53.864Z,46.87
2023-01-29T07:19:53.880Z,46.95
2023-01-29T07:20:53.880Z,46.91
2023-01-29T07:21:53.866Z,47.03
2023-01-29T07:22:53.879Z,47.05
2023-01-29T07:23:53.880Z,47.12
2023-01-29T07:24:53.880Z,47.25
2023-01-29T07:25:53.866Z,47.25
2023-01-29T07:26:53.880Z,47.12
2023-01-29T07:27:53.881Z,46.96
2023-01-29T07:28:53.881Z,47.04
2023-01-29T07:29:53.866Z,46.99
2023-01-29T07:30:53.881Z,46.86
2023-01-29T07:31:53.881Z,46.79
2023-01-29T07:32:53.881Z,46.81
2023-01-29T07:33:53.867Z,46.66
2023-01-29T07:34:53.880Z,46.63
2023-01-29T07:35:53.881Z,46.4
2023-01-29T07:36:53.881Z,46.51
2023-01-29T07:37:53.867Z,46.52
2023-01-29T07:38:53.880Z,46.65
2023-01-29T07:39:53.881Z,46.45
2023-01-29T07:40:53.865Z,46.35
2023-01-29T07:41:53.867Z,46.27
2023-01-29T07:42:53.881Z,46.35
2023-01-29T07:43:53.904Z,46.11
2023-01-29T07:44:53.867Z,46.16
2023-01-29T07:45:53.881Z,46.24
2023-01-29T07:46:53.882Z,46.24
2023-01-29T07:47:53.882Z,46.4
2023-01-29T07:48:53.866Z,46.47
2023-01-29T07:49:53.882Z,46.58
2023-01-29T07:50:53.907Z,46.61
2023-01-29T07:51:53.882Z,46.76
2023-01-29T07:52:53.868Z,46.75
2023-01-29T07:53:53.882Z,46.71
2023-01-29T07:54:53.882Z,46.7
2023-01-29T07:55:53.882Z,46.63
2023-01-29T07:56:53.868Z,46.53
2023-01-29T07:57:53.930Z,46.46
2023-01-29T07:58:53.883Z,46.42
2023-01-29T07:59:53.868Z,46.67
2023-01-29T08:00:53.868Z,46.78
2023-01-29T08:01:53.882Z,46.72
2023-01-29T08:02:53.882Z,46.76
2023-01-29T08:03:53.868Z,46.75
2023-01-29T08:04:53.882Z,46.66
2023-01-29T08:05:53.882Z,46.81
2023-01-29T08:06:53.881Z,46.77
2023-01-29T08:07:53.868Z,46.87
2023-01-29T08:08:53.883Z,46.99
2023-01-29T08:09:53.883Z,47.32
2023-01-29T08:10:53.882Z,47.27
2023-01-29T08:11:53.869Z,47.37
2023-01-29T08:12:53.883Z,47.39
2023-01-29T08:13:53.884Z,47.44
2023-01-29T08:14:53.883Z,47.48
2023-01-29T08:15:53.869Z,47.28
2023-01-29T08:16:53.883Z,47.15
2023-01-29T08:17:53.884Z,47.09
2023-01-29T08:18:53.869Z,46.94
2023-01-29T08:19:53.869Z,46.83
2023-01-29T08:20:53.883Z,46.83
2023-01-29T08:21:53.884Z,46.8
2023-01-29T08:22:53.867Z,46.95
2023-01-29T08:23:53.922Z,46.88
2023-01-29T08:24:53.883Z,46.98
2023-01-29T08:25:53.882Z,47.01
2023-01-29T08:26:53.869Z,47.03
2023-01-29T08:27:53.883Z,47.02
2023-01-29T08:28:53.884Z,46.8
2023-01-29T08:29:53.883Z,46.65
2023-01-29T08:30:53.869Z,46.66
2023-01-29T08:31:53.883Z,46.75
2023-01-29T08:32:53.887Z,46.86
2023-01-29T08:33:53.883Z,46.89
2023-01-29T08:34:53.870Z,46.74
2023-01-29T08:35:53.884Z,46.9
2023-01-29T08:36:53.885Z,46.66
2023-01-29T08:37:53.883Z,46.84
2023-01-29T08:38:53.870Z,46.84
2023-01-29T08:39:53.884Z,46.77
2023-01-29T08:40:53.884Z,46.56
2023-01-29T08:41:53.870Z,46.56
2023-01-29T08:42:53.871Z,46.46
2023-01-29T08:43:53.884Z,46.36
2023-01-29T08:45:03.143Z,46.17
2023-01-29T08:45:53.870Z,46.36
2023-01-29T08:46:53.907Z,46.53
2023-01-29T08:47:53.885Z,46.73
2023-01-29T08:48:53.885Z,46.74
2023-01-29T08:49:53.869Z,46.64
2023-01-29T08:50:53.885Z,46.75
2023-01-29T08:51:53.885Z,46.56
2023-01-29T08:52:53.885Z,46.65
2023-01-29T08:53:53.870Z,46.64
2023-01-29T08:54:53.885Z,46.61
2023-01-29T08:55:53.885Z,46.65
2023-01-29T08:56:53.884Z,46.74
2023-01-29T08:57:53.871Z,46.74
2023-01-29T08:58:53.885Z,46.7
2023-01-29T08:59:53.886Z,46.7
2023-01-29T09:00:53.896Z,46.6
2023-01-29T09:01:53.871Z,46.49
2023-01-29T09:02:53.885Z,46.32
2023-01-29T09:03:53.885Z,46.33
2023-01-29T09:04:53.871Z,46.26
2023-01-29T09:05:53.872Z,46.18
2023-01-29T09:06:53.885Z,46.04
2023-01-29T09:07:53.909Z,46.21
2023-01-29T09:08:53.871Z,46.28
2023-01-29T09:09:53.885Z,46.25
2023-01-29T09:10:53.886Z,46.51
2023-01-29T09:11:53.885Z,46.48
2023-01-29T09:12:53.871Z,46.45
2023-01-29T09:13:53.886Z,46.48
2023-01-29T09:14:53.911Z,46.38
2023-01-29T09:15:53.886Z,46.25
2023-01-29T09:16:53.871Z,46.42
2023-01-29T09:17:53.886Z,46.3
2023-01-29T09:18:53.886Z,46.39
2023-01-29T09:19:53.885Z,46.28
2023-01-29T09:20:53.873Z,46.31
2023-01-29T09:21:53.886Z,46.15
2023-01-29T09:22:53.887Z,46.35
2023-01-29T09:23:53.872Z,46.51
2023-01-29T09:24:53.873Z,46.54
2023-01-29T09:25:53.886Z,46.29
2023-01-29T09:26:53.888Z,46.39
2023-01-29T09:27:53.872Z,46.35
2023-01-29T09:28:53.873Z,46.16
2023-01-29T09:29:53.887Z,46.1
2023-01-29T09:30:53.887Z,45.96
2023-01-29T09:31:53.873Z,45.99
2023-01-29T09:32:53.887Z,45.85
2023-01-29T09:33:53.887Z,46.12
2023-01-29T09:34:53.887Z,45.91
2023-01-29T09:35:53.872Z,45.73
2023-01-29T09:36:53.887Z,45.36
2023-01-29T09:37:53.888Z,45.62
2023-01-29T09:38:53.887Z,45.62
2023-01-29T09:39:53.874Z,45.7
2023-01-29T09:40:53.887Z,45.7
2023-01-29T09:41:53.887Z,45.77
2023-01-29T09:42:53.887Z,45.74
2023-01-29T09:43:53.874Z,45.81
2023-01-29T09:44:53.888Z,46
2023-01-29T09:45:53.888Z,45.83
2023-01-29T09:46:53.873Z,45.8
2023-01-29T09:47:53.874Z,45.85
2023-01-29T09:48:53.888Z,45.84
2023-01-29T09:49:53.912Z,45.75
2023-01-29T09:50:53.874Z,45.62
2023-01-29T09:51:53.888Z,45.62
2023-01-29T09:52:53.888Z,45.45
2023-01-29T09:53:53.887Z,45.7
2023-01-29T09:54:53.874Z,45.66
2023-01-29T09:55:53.888Z,45.48
2023-01-29T09:56:53.914Z,45.41
2023-01-29T09:57:53.888Z,45.18
2023-01-29T09:58:53.875Z,45.3
2023-01-29T09:59:53.889Z,45.35
2023-01-29T10:00:53.889Z,45.68
2023-01-29T10:01:53.889Z,45.76
2023-01-29T10:02:53.875Z,45.82
2023-01-29T10:03:53.889Z,45.95
2023-01-29T10:04:53.889Z,46.14
2023-01-29T10:05:53.875Z,46.02
2023-01-29T10:06:53.875Z,45.87
2023-01-29T10:07:53.889Z,45.86
2023-01-29T10:08:53.889Z,45.34
2023-01-29T10:09:53.874Z,45.27
2023-01-29T10:10:53.889Z,45.01
2023-01-29T10:11:53.889Z,45.41
2023-01-29T10:12:53.888Z,45.36
2023-01-29T10:13:53.875Z,45.41
2023-01-29T10:14:53.889Z,45.43
2023-01-29T10:15:53.889Z,45.43
2023-01-29T10:16:53.890Z,45.51
2023-01-29T10:17:53.876Z,45.42
2023-01-29T10:18:53.890Z,45.33
2023-01-29T10:19:53.890Z,45.36
2023-01-29T10:20:53.889Z,45.25
2023-01-29T10:21:53.876Z,45.11
2023-01-29T10:22:53.890Z,45.24
2023-01-29T10:24:03.149Z,45.13
2023-01-29T10:24:53.875Z,45.27
2023-01-29T10:25:53.877Z,45.09
2023-01-29T10:26:53.890Z,45.14
2023-01-29T10:27:53.890Z,45.15
2023-01-29T10:28:53.876Z,45.5
2023-01-29T10:29:53.877Z,45.74
2023-01-29T10:30:53.891Z,46.05
2023-01-29T10:31:53.892Z,46.09
2023-01-29T10:32:53.877Z,46.27
2023-01-29T10:33:53.890Z,46.47
2023-01-29T10:34:53.890Z,46.42
2023-01-29T10:35:53.891Z,46.07
2023-01-29T10:36:53.877Z,46.24
2023-01-29T10:37:53.891Z,46.29
2023-01-29T10:38:53.891Z,46.44
2023-01-29T10:39:53.891Z,46.29
2023-01-29T10:40:53.877Z,46.43
2023-01-29T10:41:53.892Z,46.55
2023-01-29T10:42:53.892Z,46.68
2023-01-29T10:43:53.891Z,46.46
2023-01-29T10:44:53.878Z,46.19
2023-01-29T10:45:53.892Z,46.04
2023-01-29T10:46:53.892Z,45.89
2023-01-29T10:47:53.878Z,45.73
2023-01-29T10:48:53.878Z,45.49
2023-01-29T10:49:53.892Z,45.46
2023-01-29T10:50:53.892Z,45.69
2023-01-29T10:51:53.878Z,45.5
2023-01-29T10:52:53.879Z,45.4
2023-01-29T10:53:53.892Z,45.23
2023-01-29T10:54:53.893Z,45.09
2023-01-29T10:55:53.878Z,45.4
2023-01-29T10:56:53.893Z,45.47
2023-01-29T10:57:53.893Z,45.62
2023-01-29T10:58:53.893Z,45.68
2023-01-29T10:59:53.879Z,45.94
2023-01-29T11:00:53.893Z,45.93
2023-01-29T11:01:53.894Z,45.91
2023-01-29T11:02:53.892Z,45.83
2023-01-29T11:03:53.880Z,45.91
2023-01-29T11:04:53.892Z,46.03
2023-01-29T11:05:53.893Z,46.12
2023-01-29T11:06:53.893Z,46.31
2023-01-29T11:07:53.880Z,46.29
2023-01-29T11:08:53.893Z,46.46
2023-01-29T11:09:53.895Z,46.23
2023-01-29T11:10:53.879Z,46.14
2023-01-29T11:11:53.880Z,46.01
2023-01-29T11:12:53.894Z,45.76
2023-01-29T11:13:53.917Z,45.69
2023-01-29T11:14:53.880Z,45.46
2023-01-29T11:15:53.893Z,45.08
2023-01-29T11:16:53.894Z,45.25
2023-01-29T11:17:53.893Z,44.96
2023-01-29T11:18:53.880Z,45.07
2023-01-29T11:19:53.895Z,45.06
2023-01-29T11:20:53.920Z,45.16
2023-01-29T11:21:53.894Z,45.39
2023-01-29T11:22:53.881Z,45.46
2023-01-29T11:23:53.895Z,45.62
2023-01-29T11:24:53.895Z,45.68
2023-01-29T11:25:53.895Z,45.72
2023-01-29T11:26:53.881Z,45.55
2023-01-29T11:27:59.880Z,45.41
2023-01-29T11:28:53.896Z,45.24
2023-01-29T11:29:53.881Z,45.36
2023-01-29T11:30:53.882Z,45.12
2023-01-29T11:31:53.896Z,44.95
2023-01-29T11:32:53.897Z,44.8
2023-01-29T11:33:53.881Z,44.73
2023-01-29T11:34:53.882Z,44.68
2023-01-29T11:35:53.896Z,44.55
2023-01-29T11:36:53.895Z,44.51
2023-01-29T11:37:53.882Z,44.41
2023-01-29T11:38:53.895Z,44.38
2023-01-29T11:39:53.896Z,44.3
2023-01-29T11:40:53.896Z,44.34
2023-01-29T11:41:53.882Z,44.26
2023-01-29T11:42:53.897Z,44.41
2023-01-29T11:43:53.938Z,44.57
2023-01-29T11:44:53.897Z,44.89
2023-01-29T11:45:53.883Z,45.01
2023-01-29T11:46:53.896Z,45.17
2023-01-29T11:47:53.898Z,45.39
2023-01-29T11:48:53.897Z,45.33
2023-01-29T11:49:53.883Z,45.32
2023-01-29T11:50:53.907Z,45.57
2023-01-29T11:51:53.898Z,45.62
2023-01-29T11:52:53.883Z,45.93
2023-01-29T11:53:53.883Z,45.94
2023-01-29T11:54:53.898Z,45.99
2023-01-29T11:55:53.899Z,45.96
2023-01-29T11:56:53.883Z,45.9
2023-01-29T11:57:53.897Z,46.12
2023-01-29T11:58:53.898Z,46.23
2023-01-29T11:59:53.898Z,46.2
2023-01-29T12:00:53.884Z,46.03
2023-01-29T12:02:03.157Z,45.94
2023-01-29T12:02:53.899Z,46.02
2023-01-29T12:03:53.899Z,46.21
2023-01-29T12:04:53.884Z,46.2
2023-01-29T12:05:53.899Z,46.08
2023-01-29T12:06:53.900Z,46.21
2023-01-29T12:07:53.899Z,46.18
2023-01-29T12:08:53.885Z,46.01
2023-01-29T12:09:53.900Z,46.03
2023-01-29T12:10:53.900Z,45.7
2023-01-29T12:11:53.900Z,45.83
2023-01-29T12:12:53.886Z,45.88
2023-01-29T12:13:53.900Z,45.58
2023-01-29T12:14:53.900Z,46.04
2023-01-29T12:15:53.885Z,46.04
2023-01-29T12:16:53.886Z,46.06
2023-01-29T12:17:53.900Z,46.14
2023-01-29T12:18:53.900Z,46.18
2023-01-29T12:19:53.886Z,46.15
2023-01-29T12:20:53.901Z,45.93
2023-01-29T12:21:53.900Z,45.68
2023-01-29T12:22:53.900Z,45.02
2023-01-29T12:23:53.887Z,44.76
2023-01-29T12:24:53.900Z,44.91
2023-01-29T12:25:53.901Z,44.86
2023-01-29T12:26:53.900Z,45.06
2023-01-29T12:27:57.651Z,45.47
2023-01-29T12:28:53.902Z,45.62
2023-01-29T12:29:53.902Z,46.08
2023-01-29T12:30:53.901Z,46.24
2023-01-29T12:31:53.887Z,45.99
2023-01-29T12:32:53.901Z,45.71
2023-01-29T12:33:53.902Z,45.47
2023-01-29T12:34:53.902Z,45.38
2023-01-29T12:35:53.888Z,45.32
2023-01-29T12:36:53.902Z,45.28
2023-01-29T12:37:53.903Z,45.54
2023-01-29T12:38:53.888Z,45.56
2023-01-29T12:39:53.888Z,45.65
2023-01-29T12:40:53.903Z,45.74
2023-01-29T12:41:53.904Z,46.03
2023-01-29T12:42:53.888Z,46
2023-01-29T12:43:53.903Z,46.06
2023-01-29T12:44:53.903Z,46.07
2023-01-29T12:45:53.902Z,46.22
2023-01-29T12:46:53.889Z,46.15
2023-01-29T12:47:53.903Z,45.95
2023-01-29T12:48:53.903Z,46.26
2023-01-29T12:49:53.904Z,46.31
2023-01-29T12:50:53.889Z,46.72
2023-01-29T12:51:53.904Z,46.96
2023-01-29T12:52:53.904Z,47.11
2023-01-29T12:53:53.904Z,47.26
2023-01-29T12:54:53.891Z,47.02
2023-01-29T12:55:53.905Z,46.84
2023-01-29T12:56:53.906Z,46.74
2023-01-29T12:57:53.890Z,46.79
2023-01-29T12:58:53.890Z,46.83